createdAt,value
2016-06-29T00:00:02.817Z,72.91
2016-06-29T00:01:03.053Z,72.72
2016-06-29T00:02:02.836Z,72.24
2016-06-29T00:03:02.228Z,72.33
2016-06-29T00:06:02.871Z,72.33
2016-06-29T00:07:02.866Z,72.05
2016-06-29T00:08:02.884Z,72.05
2016-06-29T00:09:02.899Z,72.72
2016-06-29T00:10:02.900Z,72.63
2016-06-29T00:11:03.282Z,72.63
2016-06-29T00:12:02.909Z,72.05
2016-06-29T00:13:03.322Z,72.05
2016-06-29T00:14:03.540Z,72.53
2016-06-29T00:15:17.135Z,72.24
2016-06-29T00:16:03.165Z,72.53
2016-06-29T00:17:02.711Z,72.43
2016-06-29T00:18:02.624Z,72.43
2016-06-29T00:19:17.566Z,72.33
2016-06-29T00:20:02.988Z,72.43
2016-06-29T00:21:02.351Z,72.63
2016-06-29T00:22:02.358Z,72.91
2016-06-29T00:23:03.403Z,72.43
2016-06-29T00:24:17.427Z,72.43
2016-06-29T00:25:03.022Z,72.43
2016-06-29T00:26:03.217Z,72.43
2016-06-29T00:27:03.043Z,73.1
2016-06-29T00:28:03.231Z,72.43
2016-06-29T00:29:03.045Z,72.05
2016-06-29T00:30:03.277Z,73.1
2016-06-29T00:31:03.073Z,72.81
2016-06-29T00:33:02.656Z,73.1
2016-06-29T00:34:02.681Z,73
2016-06-29T00:36:02.670Z,73.3
2016-06-29T00:37:02.673Z,73.58
2016-06-29T00:38:02.507Z,73.97
2016-06-29T00:39:02.702Z,73.1
2016-06-29T00:41:02.533Z,73.2
2016-06-29T00:43:17.359Z,73.39
2016-06-29T00:44:02.547Z,74.06
2016-06-29T00:45:03.204Z,73.2
2016-06-29T00:46:03.203Z,73.39
2016-06-29T00:47:17.389Z,74.06
2016-06-29T00:48:17.811Z,74.26
2016-06-29T00:49:17.618Z,73.77
2016-06-29T00:50:03.634Z,74.06
2016-06-29T00:51:03.439Z,73.68
2016-06-29T00:52:04.045Z,74.73
2016-06-29T00:53:03.032Z,74.64
2016-06-29T00:54:03.098Z,74.64
2016-06-29T00:55:03.276Z,74.44
2016-06-29T00:57:03.263Z,75.02
2016-06-29T00:58:03.282Z,74.73
2016-06-29T00:59:03.306Z,74.26
2016-06-29T01:00:03.310Z,74.16
2016-06-29T01:01:03.320Z,74.44
2016-06-29T01:02:03.318Z,74.54
2016-06-29T01:03:04.124Z,74.93
2016-06-29T01:04:03.557Z,75.02
2016-06-29T01:05:03.956Z,74.83
2016-06-29T01:06:03.349Z,74.64
2016-06-29T01:07:03.970Z,74.54
2016-06-29T01:09:02.757Z,74.44
2016-06-29T01:10:02.758Z,75.02
2016-06-29T01:11:02.767Z,74.64
2016-06-29T01:12:02.787Z,74.93
2016-06-29T01:13:02.985Z,74.83
2016-06-29T01:14:02.787Z,75.4
2016-06-29T01:15:02.792Z,74.83
2016-06-29T01:16:02.792Z,74.93
2016-06-29T01:17:02.813Z,75.02
2016-06-29T01:18:02.817Z,75.02
2016-06-29T01:19:02.823Z,74.64
2016-06-29T01:20:03.244Z,75.12
2016-06-29T01:21:02.844Z,74.44
2016-06-29T01:22:02.843Z,75.4
2016-06-29T01:23:03.053Z,75.31
2016-06-29T01:24:02.858Z,75.31
2016-06-29T01:25:02.878Z,75.4
2016-06-29T01:26:02.904Z,75.31
2016-06-29T01:27:02.907Z,75.31
2016-06-29T01:28:03.503Z,75.02
2016-06-29T01:29:03.309Z,75.02
2016-06-29T01:30:03.604Z,74.64
2016-06-29T01:31:02.914Z,75.4
2016-06-29T01:32:03.782Z,75.02
2016-06-29T01:33:17.975Z,74.73
2016-06-29T01:34:03.355Z,75.4
2016-06-29T01:35:03.849Z,75.21
2016-06-29T01:36:03.816Z,74.44
2016-06-29T01:37:04.028Z,74.73
2016-06-29T01:38:03.619Z,74.93
2016-06-29T01:39:03.627Z,74.93
2016-06-29T01:40:03.632Z,74.93
2016-06-29T01:41:03.637Z,74.44
2016-06-29T01:42:17.858Z,74.73
2016-06-29T01:43:17.855Z,74.44
2016-06-29T01:44:17.863Z,74.64
2016-06-29T01:45:18.072Z,75.02
2016-06-29T01:46:03.699Z,74.44
2016-06-29T01:47:03.068Z,74.26
2016-06-29T01:48:03.482Z,74.35
2016-06-29T01:49:03.727Z,74.44
2016-06-29T01:50:03.738Z,74.83
2016-06-29T01:51:03.913Z,74.35
2016-06-29T01:52:04.149Z,74.54
2016-06-29T01:54:03.783Z,74.06
2016-06-29T01:55:18.368Z,74.16
2016-06-29T01:56:03.983Z,74.44
2016-06-29T01:57:03.779Z,73.68
2016-06-29T01:58:03.991Z,73.87
2016-06-29T01:59:03.824Z,73.77
2016-06-29T02:00:04.415Z,74.35
2016-06-29T02:01:04.013Z,74.54
2016-06-29T02:02:04.021Z,74.64
2016-06-29T02:03:04.228Z,74.54
2016-06-29T02:04:03.214Z,73.87
2016-06-29T02:06:03.642Z,73.87
2016-06-29T02:07:03.849Z,73.91
2016-06-29T02:08:03.237Z,73.72
2016-06-29T02:09:03.244Z,73.68
2016-06-29T02:10:03.252Z,74.93
2016-06-29T02:11:03.260Z,74.44
2016-06-29T02:12:03.260Z,74.58
2016-06-29T02:13:03.282Z,74.73
2016-06-29T02:14:03.487Z,74.26
2016-06-29T02:15:03.310Z,74.73
2016-06-29T02:16:03.298Z,74.54
2016-06-29T02:17:03.315Z,74.93
2016-06-29T02:18:03.715Z,74.87
2016-06-29T02:19:18.364Z,74.64
2016-06-29T02:20:18.787Z,74.44
2016-06-29T02:21:03.532Z,73.77
2016-06-29T02:22:04.197Z,74.93
2016-06-29T02:23:03.997Z,74.16
2016-06-29T02:24:04.016Z,74.44
2016-06-29T02:25:03.677Z,74.39
2016-06-29T02:26:03.609Z,74.54
2016-06-29T02:27:18.437Z,74.44
2016-06-29T02:28:18.239Z,74.26
2016-06-29T02:29:04.067Z,74.54
2016-06-29T02:30:18.862Z,74.54
2016-06-29T02:31:04.483Z,74.54
2016-06-29T02:33:03.452Z,74.96
2016-06-29T02:34:04.095Z,73.62
2016-06-29T02:35:04.106Z,73.81
2016-06-29T02:36:04.335Z,74.19
2016-06-29T02:37:04.527Z,73.91
2016-06-29T02:38:04.126Z,74.01
2016-06-29T02:39:04.330Z,74.29
2016-06-29T02:42:04.360Z,74.58
2016-06-29T02:43:04.401Z,73.91
2016-06-29T02:45:03.553Z,75.06
2016-06-29T02:46:03.558Z,74.77
2016-06-29T02:47:03.580Z,74.1
2016-06-29T02:48:03.579Z,74.77
2016-06-29T02:49:03.584Z,74.77
2016-06-29T02:50:03.586Z,74.39
2016-06-29T02:51:03.594Z,74.58
2016-06-29T02:52:03.608Z,75.92
2016-06-29T02:53:03.626Z,76.5
2016-06-29T02:54:03.621Z,75.54
2016-06-29T02:55:03.843Z,75.54
2016-06-29T02:56:03.646Z,75.54
2016-06-29T02:57:03.852Z,75.63
2016-06-29T02:58:03.690Z,75.82
2016-06-29T02:59:04.714Z,75.45
2016-06-29T03:02:04.119Z,75.15
2016-06-29T03:04:03.920Z,75.63
2016-06-29T03:05:04.781Z,75.35
2016-06-29T03:06:04.364Z,75.15
2016-06-29T03:07:03.750Z,76.21
2016-06-29T03:09:18.596Z,76.12
2016-06-29T03:11:03.969Z,76.31
2016-06-29T03:13:04.005Z,75.25
2016-06-29T03:14:04.315Z,75.54
2016-06-29T03:15:04.659Z,75.45
2016-06-29T03:16:04.669Z,75.82
2016-06-29T03:17:04.879Z,75.45
2016-06-29T03:18:04.487Z,75.82
2016-06-29T03:19:04.684Z,75.06
2016-06-29T03:20:04.485Z,75.73
2016-06-29T03:21:03.884Z,75.82
2016-06-29T03:22:04.505Z,75.45
2016-06-29T03:23:04.510Z,75.06
2016-06-29T03:24:04.288Z,75.25
2016-06-29T03:25:04.095Z,75.45
2016-06-29T03:26:03.910Z,75.25
2016-06-29T03:27:03.915Z,75.25
2016-06-29T03:28:03.923Z,74.87
2016-06-29T03:29:04.142Z,75.06
2016-06-29T03:30:03.940Z,74.96
2016-06-29T03:31:04.153Z,74.48
2016-06-29T03:32:18.814Z,74.87
2016-06-29T03:33:04.618Z,74.58
2016-06-29T03:34:04.171Z,75.06
2016-06-29T03:35:04.486Z,74.68
2016-06-29T03:36:04.841Z,74.68
2016-06-29T03:37:04.650Z,74.77
2016-06-29T03:38:04.855Z,74.68
2016-06-29T03:41:05.246Z,74.39
2016-06-29T03:43:04.061Z,74.77
2016-06-29T03:44:19.099Z,74.68
2016-06-29T03:45:04.097Z,74.77
2016-06-29T03:46:04.295Z,75.73
2016-06-29T03:47:19.328Z,76.12
2016-06-29T03:49:06.187Z,75.92
2016-06-29T03:50:04.961Z,76.02
2016-06-29T03:51:04.999Z,77.26
2016-06-29T03:52:04.767Z,77.46
2016-06-29T03:53:04.988Z,77.84
2016-06-29T03:54:04.822Z,77.84
2016-06-29T03:55:04.817Z,77.36
2016-06-29T03:56:04.806Z,77.84
2016-06-29T03:57:05.226Z,78.03
2016-06-29T03:58:04.832Z,78.03
2016-06-29T03:59:04.839Z,78.61
2016-06-29T04:00:05.243Z,79.09
2016-06-29T04:01:04.250Z,78.52
2016-06-29T04:02:04.436Z,79.47
2016-06-29T04:03:04.442Z,79.47
2016-06-29T04:04:04.243Z,79.53
2016-06-29T04:05:04.247Z,79.44
2016-06-29T04:06:04.267Z,80.2
2016-06-29T04:07:04.276Z,80.78
2016-06-29T04:08:04.271Z,80.97
2016-06-29T04:09:04.278Z,81.45
2016-06-29T04:10:04.286Z,81.07
2016-06-29T04:11:04.292Z,81.26
2016-06-29T04:12:04.294Z,80.78
2016-06-29T04:13:19.147Z,81.07
2016-06-29T04:14:04.317Z,80.78
2016-06-29T04:15:04.317Z,82.41
2016-06-29T04:16:04.533Z,81.98
2016-06-29T04:17:04.328Z,82.18
2016-06-29T04:18:04.349Z,82.27
2016-06-29T04:19:04.351Z,82.27
2016-06-29T04:20:04.567Z,83.23
2016-06-29T04:21:04.363Z,82.65
2016-06-29T04:22:04.383Z,82.08
2016-06-29T04:23:04.376Z,82.27
2016-06-29T04:24:04.377Z,82.65
2016-06-29T04:25:04.423Z,82.18
2016-06-29T04:26:04.417Z,82.85
2016-06-29T04:27:04.399Z,82.18
2016-06-29T04:28:04.409Z,82.65
2016-06-29T04:29:04.434Z,82.18
2016-06-29T04:30:04.436Z,82.18
2016-06-29T04:31:04.448Z,81.98
2016-06-29T04:32:04.447Z,82.37
2016-06-29T04:33:04.653Z,82.08
2016-06-29T04:34:04.455Z,82.08
2016-06-29T04:35:04.878Z,82.08
2016-06-29T04:36:04.472Z,82.46
2016-06-29T04:37:04.680Z,81.89
2016-06-29T04:38:04.884Z,82.08
2016-06-29T04:39:04.904Z,82.18
2016-06-29T04:40:04.905Z,82.18
2016-06-29T04:41:04.713Z,82.08
2016-06-29T04:42:04.519Z,82.18
2016-06-29T04:43:19.358Z,81.98
2016-06-29T04:44:04.553Z,81.79
2016-06-29T04:45:05.154Z,81.89
2016-06-29T04:46:04.544Z,81.98
2016-06-29T04:47:04.954Z,82.27
2016-06-29T04:48:04.847Z,81.79
2016-06-29T04:49:05.213Z,81.79
2016-06-29T04:50:05.227Z,81.79
2016-06-29T04:51:05.228Z,81.79
2016-06-29T04:52:05.234Z,82.37
2016-06-29T04:53:05.242Z,81.98
2016-06-29T04:54:04.616Z,81.89
2016-06-29T04:55:05.471Z,82.18
2016-06-29T04:56:05.275Z,82.03
2016-06-29T04:57:05.281Z,82.12
2016-06-29T04:59:19.682Z,82.18
2016-06-29T05:00:19.686Z,82.31
2016-06-29T05:01:04.673Z,81.7
2016-06-29T05:02:19.710Z,81.26
2016-06-29T05:03:04.674Z,81.74
2016-06-29T05:04:19.521Z,81.35
2016-06-29T05:05:19.935Z,81.74
2016-06-29T05:06:19.534Z,81.74
2016-06-29T05:07:05.363Z,81.35
2016-06-29T05:08:19.751Z,81.45
2016-06-29T05:09:05.365Z,82.41
2016-06-29T05:10:05.406Z,82.41
2016-06-29T05:11:05.595Z,81.16
2016-06-29T05:12:05.763Z,81.45
2016-06-29T05:13:05.398Z,81.45
2016-06-29T05:14:05.606Z,81.26
2016-06-29T05:15:05.616Z,81.26
2016-06-29T05:16:05.622Z,81.16
2016-06-29T05:17:05.638Z,81.26
2016-06-29T05:19:05.459Z,81.84
2016-06-29T05:20:05.643Z,82.03
2016-06-29T05:21:05.645Z,81.26
2016-06-29T05:22:05.464Z,81.26
2016-06-29T05:24:05.677Z,81.84
2016-06-29T05:25:04.859Z,81.16
2016-06-29T05:26:05.522Z,81.54
2016-06-29T05:27:05.504Z,81.35
2016-06-29T05:28:05.710Z,81.16
2016-06-29T05:31:04.897Z,81.26
2016-06-29T05:32:05.534Z,81.74
2016-06-29T05:33:05.578Z,81.45
2016-06-29T05:34:04.937Z,81.54
2016-06-29T05:35:04.942Z,81.54
2016-06-29T05:36:19.767Z,81.74
2016-06-29T05:37:05.171Z,82.03
2016-06-29T05:38:05.597Z,81.45
2016-06-29T05:39:05.164Z,81.45
2016-06-29T05:40:05.827Z,81.16
2016-06-29T05:41:06.038Z,81.64
2016-06-29T05:43:05.407Z,81.49
2016-06-29T05:44:06.069Z,81.35
2016-06-29T05:45:05.670Z,81.93
2016-06-29T05:46:05.030Z,81.84
2016-06-29T05:47:05.690Z,81.45
2016-06-29T05:48:19.867Z,81.16
2016-06-29T05:49:05.923Z,81.93
2016-06-29T05:50:05.895Z,81.74
2016-06-29T05:51:05.708Z,81.64
2016-06-29T05:52:05.686Z,81.74
2016-06-29T05:53:05.905Z,81.35
2016-06-29T05:54:05.712Z,81.84
2016-06-29T05:55:05.915Z,81.45
2016-06-29T05:56:05.725Z,81.74
2016-06-29T05:57:05.751Z,81.68
2016-06-29T05:58:05.116Z,81.45
2016-06-29T05:59:05.138Z,81.45
2016-06-29T06:00:05.540Z,81.68
2016-06-29T06:01:05.145Z,81.26
2016-06-29T06:02:05.179Z,81.3
2016-06-29T06:04:05.164Z,81.49
2016-06-29T06:05:05.200Z,81.49
2016-06-29T06:06:05.179Z,81.49
2016-06-29T06:07:05.397Z,81.87
2016-06-29T06:08:05.223Z,81.3
2016-06-29T06:09:05.220Z,81.4
2016-06-29T06:10:05.228Z,81.68
2016-06-29T06:11:05.454Z,81.59
2016-06-29T06:12:05.665Z,81.4
2016-06-29T06:13:05.460Z,81.59
2016-06-29T06:14:05.253Z,81.68
2016-06-29T06:15:05.450Z,81.2
2016-06-29T06:16:05.909Z,81.2
2016-06-29T06:17:05.277Z,81.3
2016-06-29T06:18:05.299Z,81.2
2016-06-29T06:19:05.295Z,81.4
2016-06-29T06:20:20.369Z,81.1
2016-06-29T06:21:06.178Z,81.3
2016-06-29T06:22:05.853Z,81.53
2016-06-29T06:23:05.996Z,81.43
2016-06-29T06:24:06.182Z,81.72
2016-06-29T06:25:05.983Z,81.05
2016-06-29T06:26:05.991Z,81.43
2016-06-29T06:27:05.995Z,81.63
2016-06-29T06:28:06.007Z,80.57
2016-06-29T06:29:05.389Z,80.96
2016-06-29T06:30:05.404Z,81.24
2016-06-29T06:31:20.434Z,80.96
2016-06-29T06:32:05.422Z,81.38
2016-06-29T06:33:20.677Z,80.9
2016-06-29T06:34:06.080Z,80.9
2016-06-29T06:35:06.081Z,80.51
2016-06-29T06:36:05.496Z,80.22
2016-06-29T06:37:06.297Z,80.32
2016-06-29T06:38:05.882Z,80.32
2016-06-29T06:39:20.314Z,80.22
2016-06-29T06:40:05.485Z,80.65
2016-06-29T06:41:06.146Z,80.07
2016-06-29T06:42:05.832Z,80.65
2016-06-29T06:43:05.731Z,80.36
2016-06-29T06:44:05.740Z,80.75
2016-06-29T06:45:06.157Z,80.46
2016-06-29T06:46:05.756Z,79.98
2016-06-29T06:47:05.564Z,80.65
2016-06-29T06:48:05.987Z,80.4
2016-06-29T06:49:20.617Z,80.02
2016-06-29T06:50:06.252Z,79.82
2016-06-29T06:51:06.449Z,79.92
2016-06-29T06:52:06.230Z,79.44
2016-06-29T06:53:06.463Z,79.05
2016-06-29T06:54:05.631Z,78.67
2016-06-29T06:56:05.648Z,78.96
2016-06-29T06:57:05.648Z,78.9
2016-06-29T06:58:20.718Z,78.9
2016-06-29T06:59:06.320Z,78.61
2016-06-29T07:00:20.726Z,79
2016-06-29T07:01:06.326Z,78.71
2016-06-29T07:02:06.761Z,78.77
2016-06-29T07:03:06.366Z,78.86
2016-06-29T07:04:05.760Z,78.67
2016-06-29T07:05:05.739Z,79.25
2016-06-29T07:06:05.745Z,78.96
2016-06-29T07:07:05.965Z,79.05
2016-06-29T07:09:05.993Z,79.15
2016-06-29T07:11:05.823Z,79.05
2016-06-29T07:12:05.822Z,78.67
2016-06-29T07:13:05.829Z,78.86
2016-06-29T07:14:20.683Z,79.53
2016-06-29T07:16:06.509Z,78.86
2016-06-29T07:17:06.513Z,78.77
2016-06-29T07:18:06.518Z,78.86
2016-06-29T07:19:05.901Z,78.58
2016-06-29T07:20:05.909Z,78.67
2016-06-29T07:21:20.743Z,79.05
2016-06-29T07:22:06.405Z,79.05
2016-06-29T07:23:06.591Z,78.81
2016-06-29T07:24:06.585Z,79.19
2016-06-29T07:25:06.585Z,79
2016-06-29T07:26:06.599Z,78.81
2016-06-29T07:27:06.622Z,78.81
2016-06-29T07:28:06.609Z,78.81
2016-06-29T07:29:06.002Z,78.23
2016-06-29T07:30:06.009Z,77.69
2016-06-29T07:31:06.223Z,78.17
2016-06-29T07:33:06.039Z,77.31
2016-06-29T07:34:06.456Z,77.83
2016-06-29T07:35:06.909Z,77.63
2016-06-29T07:36:06.861Z,77.73
2016-06-29T07:37:06.388Z,77.44
2016-06-29T07:38:06.111Z,77.44
2016-06-29T07:39:06.752Z,77.25
2016-06-29T07:40:06.174Z,77.06
2016-06-29T07:41:06.148Z,77.44
2016-06-29T07:42:06.154Z,77.44
2016-06-29T07:43:06.170Z,77.44
2016-06-29T07:44:21.208Z,77.63
2016-06-29T07:45:06.823Z,77.06
2016-06-29T07:46:07.233Z,77.53
2016-06-29T07:47:06.217Z,77.06
2016-06-29T07:48:21.663Z,76.86
2016-06-29T07:50:07.064Z,77.06
2016-06-29T07:51:06.255Z,76.48
2016-06-29T07:52:06.307Z,77.09
2016-06-29T07:53:06.293Z,77.19
2016-06-29T07:54:06.287Z,76.61
2016-06-29T07:55:06.295Z,77.38
2016-06-29T07:56:07.557Z,77.19
2016-06-29T07:57:06.498Z,77.19
2016-06-29T07:58:06.342Z,77.19
2016-06-29T07:59:21.383Z,77.48
2016-06-29T08:00:07.323Z,77.96
2016-06-29T08:01:07.301Z,77.76
2016-06-29T08:02:07.130Z,77.58
2016-06-29T08:03:07.138Z,76.9
2016-06-29T08:04:06.567Z,77.48
2016-06-29T08:05:07.550Z,77.96
2016-06-29T08:06:06.492Z,77.48
2016-06-29T08:08:06.729Z,77.09
2016-06-29T08:09:07.075Z,77.48
2016-06-29T08:10:21.308Z,77.76
2016-06-29T08:11:07.412Z,77.38
2016-06-29T08:12:07.421Z,77.58
2016-06-29T08:13:06.593Z,77.96
2016-06-29T08:14:07.495Z,78.15
2016-06-29T08:15:06.532Z,78.58
2016-06-29T08:17:06.656Z,78.44
2016-06-29T08:18:06.752Z,77.76
2016-06-29T08:19:07.064Z,77.48
2016-06-29T08:21:06.853Z,76.93
2016-06-29T08:22:07.267Z,76.75
2016-06-29T08:23:07.358Z,76.45
2016-06-29T08:24:06.732Z,76.26
2016-06-29T08:26:07.285Z,75.68
2016-06-29T08:27:22.138Z,75.82
2016-06-29T08:28:07.628Z,75.72
2016-06-29T08:29:07.067Z,75.43
2016-06-29T08:31:07.526Z,74.66
2016-06-29T08:32:06.810Z,75.09
2016-06-29T08:34:07.507Z,74.21
2016-06-29T08:35:07.627Z,74.21
2016-06-29T08:36:07.142Z,73.93
2016-06-29T08:37:07.497Z,74.69
2016-06-29T08:38:07.490Z,73.73
2016-06-29T08:39:08.007Z,74.21
2016-06-29T08:40:07.221Z,74.31
2016-06-29T08:41:07.996Z,74.6
2016-06-29T08:43:10.298Z,73.54
2016-06-29T08:44:22.417Z,73.63
2016-06-29T08:47:08.584Z,73.44
2016-06-29T08:49:08.818Z,74.21
2016-06-29T08:50:09.482Z,74.41
2016-06-29T08:51:09.007Z,74.12
2016-06-29T08:52:09.222Z,73.63
2016-06-29T08:53:07.873Z,73.15
2016-06-29T08:54:07.869Z,73.28
2016-06-29T08:55:07.045Z,72.58
2016-06-29T08:58:22.446Z,72.09
2016-06-29T08:59:10.033Z,71.22
2016-06-29T09:00:07.107Z,72.32
2016-06-29T09:01:21.960Z,71.94
2016-06-29T09:02:08.055Z,72.32
2016-06-29T09:03:07.240Z,71.64
2016-06-29T09:04:07.931Z,72.03
2016-06-29T09:05:07.323Z,72.42
2016-06-29T09:06:07.181Z,71.94
2016-06-29T09:07:07.896Z,71.64
2016-06-29T09:08:08.329Z,69.71
2016-06-29T09:09:07.326Z,70.04
2016-06-29T09:10:07.942Z,71.1
2016-06-29T09:11:07.361Z,70.42
2016-06-29T09:12:07.261Z,70.52
2016-06-29T09:13:07.307Z,69.46
2016-06-29T09:14:07.603Z,67.52
2016-06-29T09:15:07.869Z,67.52
2016-06-29T09:16:07.359Z,68.91
2016-06-29T09:17:08.141Z,68.14
2016-06-29T09:18:08.444Z,67.27
2016-06-29T09:19:08.406Z,67.36
2016-06-29T09:21:08.238Z,67.08
2016-06-29T09:22:07.392Z,67.56
2016-06-29T09:23:08.462Z,66.88
2016-06-29T09:24:07.445Z,66.78
2016-06-29T09:25:07.744Z,66.4
2016-06-29T09:26:08.294Z,64.66
2016-06-29T09:27:07.480Z,65.24
2016-06-29T09:28:07.485Z,66.5
2016-06-29T09:29:08.140Z,65.53
2016-06-29T09:30:07.910Z,65.34
2016-06-29T09:31:08.127Z,65.3
2016-06-29T09:32:07.532Z,65.3
2016-06-29T09:35:08.215Z,66.46
2016-06-29T09:36:08.510Z,66.69
2016-06-29T09:37:07.615Z,67.14
2016-06-29T09:38:07.820Z,65.24
2016-06-29T09:39:07.830Z,64.66
2016-06-29T09:40:07.651Z,65.05
2016-06-29T09:41:07.712Z,63.21
2016-06-29T09:42:08.310Z,62.53
2016-06-29T09:43:08.963Z,62.73
2016-06-29T09:44:07.753Z,62.53
2016-06-29T09:45:07.718Z,62.63
2016-06-29T09:46:07.743Z,62.34
2016-06-29T09:47:08.141Z,62.82
2016-06-29T09:48:22.793Z,62.92
2016-06-29T09:49:08.396Z,62.4
2016-06-29T09:50:23.224Z,63.08
2016-06-29T09:52:07.814Z,62.73
2016-06-29T09:53:08.059Z,63.31
2016-06-29T09:54:07.856Z,62.92
2016-06-29T09:55:08.071Z,62.44
2016-06-29T09:56:08.479Z,62.15
2016-06-29T09:57:08.503Z,60.92
2016-06-29T09:58:08.544Z,61.11
2016-06-29T09:59:08.143Z,59.86
2016-06-29T10:00:08.785Z,59.95
2016-06-29T10:01:07.933Z,59.98
2016-06-29T10:02:07.968Z,60.08
2016-06-29T10:03:09.048Z,60.27
2016-06-29T10:04:08.619Z,59.69
2016-06-29T10:05:23.557Z,59.89
2016-06-29T10:06:08.185Z,61.33
2016-06-29T10:07:08.850Z,60.85
2016-06-29T10:08:08.382Z,60.17
2016-06-29T10:09:09.011Z,60.95
2016-06-29T10:10:08.138Z,60.3
2016-06-29T10:11:08.081Z,59.05
2016-06-29T10:12:09.151Z,59.72
2016-06-29T10:13:08.381Z,60.85
2016-06-29T10:14:08.499Z,61.08
2016-06-29T10:15:08.463Z,61.08
2016-06-29T10:16:08.871Z,60.88
2016-06-29T10:17:23.659Z,59.53
2016-06-29T10:18:09.249Z,58.56
2016-06-29T10:19:09.430Z,59.91
2016-06-29T10:20:08.271Z,59.53
2016-06-29T10:21:08.494Z,59.72
2016-06-29T10:22:09.119Z,59.72
2016-06-29T10:23:09.032Z,58.65
2016-06-29T10:24:08.315Z,58.85
2016-06-29T10:25:08.351Z,58.78
2016-06-29T10:26:09.056Z,57.53
2016-06-29T10:27:08.445Z,57.04
2016-06-29T10:28:23.351Z,55.68
2016-06-29T10:29:09.027Z,56.26
2016-06-29T10:30:08.442Z,56.07
2016-06-29T10:31:09.451Z,55.49
2016-06-29T10:32:08.536Z,55.49
2016-06-29T10:33:09.289Z,55.4
2016-06-29T10:34:23.454Z,55.88
2016-06-29T10:35:08.478Z,55.1
2016-06-29T10:36:09.694Z,54.03
2016-06-29T10:37:09.031Z,55
2016-06-29T10:38:09.261Z,56.46
2016-06-29T10:39:08.723Z,56.16
2016-06-29T10:40:09.520Z,54.71
2016-06-29T10:41:09.218Z,56.16
2016-06-29T10:42:23.549Z,55.58
2016-06-29T10:44:09.711Z,56.46
2016-06-29T10:45:09.337Z,56.46
2016-06-29T10:46:09.478Z,55.98
2016-06-29T10:47:08.959Z,56.85
2016-06-29T10:48:23.445Z,55.04
2016-06-29T10:49:09.157Z,55.81
2016-06-29T10:50:09.455Z,55.81
2016-06-29T10:51:09.082Z,54.84
2016-06-29T10:52:09.671Z,53.97
2016-06-29T10:54:09.179Z,53.49
2016-06-29T10:55:08.840Z,52.8
2016-06-29T10:56:09.437Z,53.19
2016-06-29T10:57:23.777Z,52.06
2016-06-29T10:58:08.915Z,52.42
2016-06-29T10:59:08.841Z,51.96
2016-06-29T11:00:08.991Z,49.82
2016-06-29T11:01:08.857Z,49.15
2016-06-29T11:02:09.837Z,51.54
2016-06-29T11:03:10.033Z,52.44
2016-06-29T11:04:09.734Z,51.37
2016-06-29T11:05:09.619Z,52.42
2016-06-29T11:06:09.672Z,53.19
2016-06-29T11:07:09.059Z,52.06
2016-06-29T11:08:09.987Z,51.67
2016-06-29T11:09:23.978Z,51.37
2016-06-29T11:10:09.650Z,51.57
2016-06-29T11:11:09.711Z,51.96
2016-06-29T11:12:09.025Z,51.09
2016-06-29T11:13:09.134Z,51.47
2016-06-29T11:14:09.079Z,51.4
2016-06-29T11:15:09.082Z,52.28
2016-06-29T11:16:09.670Z,51.4
2016-06-29T11:17:09.133Z,51.4
2016-06-29T11:18:09.295Z,52.2
2016-06-29T11:19:09.848Z,50.26
2016-06-29T11:20:10.083Z,49.68
2016-06-29T11:21:09.235Z,51.33
2016-06-29T11:22:10.227Z,49.39
2016-06-29T11:23:09.798Z,49.29
2016-06-29T11:24:09.248Z,46.89
2016-06-29T11:25:09.459Z,45.99
2016-06-29T11:26:10.298Z,46.41
2016-06-29T11:27:10.102Z,46.79
2016-06-29T11:28:10.106Z,46.69
2016-06-29T11:29:09.994Z,46.86
2016-06-29T11:30:10.709Z,47.86
2016-06-29T11:31:10.175Z,46.58
2016-06-29T11:32:10.432Z,45.72
2016-06-29T11:33:24.139Z,46.89
2016-06-29T11:34:24.351Z,46.01
2016-06-29T11:35:10.154Z,45.62
2016-06-29T11:36:09.400Z,45.43
2016-06-29T11:37:10.023Z,46.11
2016-06-29T11:38:10.025Z,45.82
2016-06-29T11:39:10.041Z,46.72
2016-06-29T11:40:24.254Z,46.72
2016-06-29T11:41:10.062Z,44.87
2016-06-29T11:42:09.743Z,44.97
2016-06-29T11:43:09.717Z,46.15
2016-06-29T11:44:10.310Z,45.38
2016-06-29T11:45:09.879Z,41.61
2016-06-29T11:46:11.069Z,42.19
2016-06-29T11:47:10.172Z,44.43
2016-06-29T11:48:10.427Z,42.02
2016-06-29T11:50:10.260Z,41.05
2016-06-29T11:51:09.885Z,41.24
2016-06-29T11:52:10.374Z,41.06
2016-06-29T11:53:10.484Z,39.39
2016-06-29T11:54:09.628Z,41.14
2016-06-29T11:55:24.475Z,39.51
2016-06-29T11:56:10.404Z,39.29
2016-06-29T11:57:24.624Z,38.34
2016-06-29T11:58:10.737Z,39.51
2016-06-29T11:59:10.754Z,41.26
2016-06-29T12:00:10.640Z,39.51
2016-06-29T12:01:09.934Z,39.41
2016-06-29T12:02:10.715Z,38.34
2016-06-29T12:03:10.486Z,37.27
2016-06-29T12:04:10.706Z,38.34
2016-06-29T12:05:10.306Z,37.46
2016-06-29T12:06:10.366Z,37.85
2016-06-29T12:07:11.272Z,38.73
2016-06-29T12:08:10.898Z,37.08
2016-06-29T12:09:10.631Z,38.52
2016-06-29T12:10:11.301Z,39.98
2016-06-29T12:11:10.435Z,40.37
2016-06-29T12:12:10.819Z,40.08
2016-06-29T12:13:24.934Z,41.44
2016-06-29T12:15:10.822Z,40.15
2016-06-29T12:16:11.095Z,40.27
2016-06-29T12:17:11.017Z,41.83
2016-06-29T12:18:10.805Z,39.78
2016-06-29T12:19:10.311Z,40.47
2016-06-29T12:20:11.052Z,42.7
2016-06-29T12:21:10.178Z,42.6
2016-06-29T12:23:11.301Z,42.14
2016-06-29T12:24:11.018Z,42.43
2016-06-29T12:25:11.099Z,41.96
2016-06-29T12:26:10.962Z,40.31
2016-06-29T12:27:25.029Z,41.38
2016-06-29T12:28:11.548Z,40.5
2016-06-29T12:29:10.237Z,39.53
2016-06-29T12:30:10.653Z,37.97
2016-06-29T12:31:10.298Z,38.57
2016-06-29T12:32:25.205Z,39.26
2016-06-29T12:33:25.390Z,39.65
2016-06-29T12:34:12.086Z,39.28
2016-06-29T12:35:11.243Z,37.23
2016-06-29T12:36:11.278Z,36.06
2016-06-29T12:37:10.575Z,36.94
2016-06-29T12:38:11.135Z,38.01
2016-06-29T12:39:10.530Z,37.33
2016-06-29T12:40:10.851Z,37.43
2016-06-29T12:41:11.382Z,35.77
2016-06-29T12:42:11.992Z,35.57
2016-06-29T12:43:10.677Z,37.04
2016-06-29T12:44:10.803Z,36.37
2016-06-29T12:45:11.321Z,35.2
2016-06-29T12:46:10.802Z,36.18
2016-06-29T12:47:11.169Z,37.45
2016-06-29T12:48:10.571Z,33.44
2016-06-29T12:49:10.588Z,33.64
2016-06-29T12:50:10.869Z,33.64
2016-06-29T12:51:11.230Z,31.98
2016-06-29T12:52:10.614Z,33.54
2016-06-29T12:53:11.288Z,33.25
2016-06-29T12:56:11.533Z,35
2016-06-29T12:57:10.715Z,36.18
2016-06-29T12:59:10.750Z,35.78
2016-06-29T13:00:11.612Z,34.03
2016-06-29T13:01:11.620Z,34.71
2016-06-29T13:02:10.810Z,33.64
2016-06-29T13:04:11.456Z,33.17
2016-06-29T13:05:11.700Z,33.75
2016-06-29T13:06:11.718Z,33.46
2016-06-29T13:07:10.879Z,32.58
2016-06-29T13:08:11.106Z,32.78
2016-06-29T13:09:25.769Z,33.07
2016-06-29T13:10:11.343Z,31.41
2016-06-29T13:11:10.949Z,30.44
2016-06-29T13:12:11.629Z,32.19
2016-06-29T13:13:11.659Z,31.6
2016-06-29T13:14:11.864Z,33.65
2016-06-29T13:15:12.075Z,32.78
2016-06-29T13:16:11.259Z,33.26
2016-06-29T13:17:11.276Z,35.02
2016-06-29T13:18:25.945Z,33.07
2016-06-29T13:19:11.518Z,32.29
2016-06-29T13:20:11.865Z,32.68
2016-06-29T13:22:11.983Z,34.92
2016-06-29T13:23:11.536Z,32.29
2016-06-29T13:24:11.931Z,32.78
2016-06-29T13:25:12.061Z,33.46
2016-06-29T13:26:11.393Z,33.07
2016-06-29T13:27:11.837Z,33.95
2016-06-29T13:28:12.424Z,35.41
2016-06-29T13:29:12.130Z,34.92
2016-06-29T13:30:11.433Z,35.02
2016-06-29T13:31:11.434Z,35.71
2016-06-29T13:32:12.166Z,36.88
2016-06-29T13:33:26.194Z,36.29
2016-06-29T13:34:12.195Z,36.41
2016-06-29T13:35:11.421Z,35.24
2016-06-29T13:36:11.508Z,36.31
2016-06-29T13:38:26.498Z,33.48
2016-06-29T13:39:12.582Z,34.65
2016-06-29T13:40:26.319Z,33.77
2016-06-29T13:41:26.543Z,34.84
2016-06-29T13:42:12.325Z,33.38
2016-06-29T13:43:11.583Z,34.55
2016-06-29T13:44:12.912Z,34.26
2016-06-29T13:45:12.709Z,33.38
2016-06-29T13:46:11.911Z,32.89
2016-06-29T13:47:26.552Z,32.81
2016-06-29T13:48:11.747Z,33.69
2016-06-29T13:49:13.316Z,33.3
2016-06-29T13:50:12.379Z,34.38
2016-06-29T13:51:12.936Z,33.3
2016-06-29T13:52:26.753Z,34.47
2016-06-29T13:53:12.821Z,33.09
2016-06-29T13:54:26.865Z,32.4
2016-06-29T13:55:12.485Z,33.28
2016-06-29T13:56:12.452Z,32.79
2016-06-29T13:57:12.585Z,34.36
2016-06-29T13:58:12.534Z,33.77